sensor_id;sensor_type;location;lat;lon;timestamp;pressure;altitude;pressure_sealevel;temperature;humidity
43553;BME280;29153;42.696;23.218;2023-01-31T00:01:37;93995.20;;;-0.93;86.89
43553;BME280;29153;42.696;23.218;2023-01-31T00:04:07;94001.27;;;-1.08;86.66
43553;BME280;29153;42.696;23.218;2023-01-31T00:06:40;94000.65;;;-1.19;86.56
43553;BME280;29153;42.696;23.218;2023-01-31T00:09:09;93995.45;;;-1.19;86.73
43553;BME280;29153;42.696;23.218;2023-01-31T00:11:36;93995.63;;;-1.05;86.57
43553;BME280;29153;42.696;23.218;2023-01-31T00:14:05;93994.03;;;-1.06;86.19
43553;BME280;29153;42.696;23.218;2023-01-31T00:16:33;93992.68;;;-0.99;86.02
43553;BME280;29153;42.696;23.218;2023-01-31T00:19:02;94001.98;;;-1.01;85.52
43553;BME280;29153;42.696;23.218;2023-01-31T00:21:30;94003.70;;;-1.13;85.47
43553;BME280;29153;42.696;23.218;2023-01-31T00:23:59;94010.50;;;-1.12;85.54
43553;BME280;29153;42.696;23.218;2023-01-31T00:26:28;94002.13;;;-1.05;85.34
43553;BME280;29153;42.696;23.218;2023-01-31T00:28:58;94008.48;;;-1.01;85.15
43553;BME280;29153;42.696;23.218;2023-01-31T00:31:27;94006.45;;;-1.08;85.27
43553;BME280;29153;42.696;23.218;2023-01-31T00:33:56;94005.38;;;-1.00;85.55
43553;BME280;29153;42.696;23.218;2023-01-31T00:36:26;93999.66;;;-1.09;85.74
43553;BME280;29153;42.696;23.218;2023-01-31T00:38:56;94001.67;;;-1.11;86.24
43553;BME280;29153;42.696;23.218;2023-01-31T00:41:25;93995.11;;;-1.13;86.83
43553;BME280;29153;42.696;23.218;2023-01-31T00:43:53;94001.10;;;-1.13;87.23
43553;BME280;29153;42.696;23.218;2023-01-31T00:46:21;93997.19;;;-1.22;87.84
43553;BME280;29153;42.696;23.218;2023-01-31T00:48:49;93997.91;;;-1.15;88.10
43553;BME280;29153;42.696;23.218;2023-01-31T00:51:18;93998.52;;;-1.04;88.31
43553;BME280;29153;42.696;23.218;2023-01-31T00:53:46;93998.86;;;-1.09;87.74
43553;BME280;29153;42.696;23.218;2023-01-31T00:56:19;93998.20;;;-1.14;88.13
43553;BME280;29153;42.696;23.218;2023-01-31T00:58:49;94002.69;;;-1.03;88.25
43553;BME280;29153;42.696;23.218;2023-01-31T01:01:22;94001.12;;;-1.04;88.26
43553;BME280;29153;42.696;23.218;2023-01-31T01:03:51;94009.60;;;-1.15;88.33
43553;BME280;29153;42.696;23.218;2023-01-31T01:06:20;94018.43;;;-1.16;89.29
43553;BME280;29153;42.696;23.218;2023-01-31T01:08:48;94016.02;;;-1.26;89.07
43553;BME280;29153;42.696;23.218;2023-01-31T01:11:18;94017.37;;;-1.24;89.49
43553;BME280;29153;42.696;23.218;2023-01-31T01:13:47;94019.11;;;-1.27;89.31
43553;BME280;29153;42.696;23.218;2023-01-31T01:16:29;94016.22;;;-1.28;88.62
43553;BME280;29153;42.696;23.218;2023-01-31T01:18:51;94019.63;;;-1.18;88.44
43553;BME280;29153;42.696;23.218;2023-01-31T01:21:23;94006.73;;;-1.16;88.46
43553;BME280;29153;42.696;23.218;2023-01-31T01:23:52;93999.80;;;-1.13;88.50
43553;BME280;29153;42.696;23.218;2023-01-31T01:26:22;94002.56;;;-1.08;88.40
43553;BME280;29153;42.696;23.218;2023-01-31T01:28:51;93995.31;;;-1.15;88.92
43553;BME280;29153;42.696;23.218;2023-01-31T01:31:19;93993.61;;;-1.12;87.66
43553;BME280;29153;42.696;23.218;2023-01-31T01:33:48;93987.33;;;-1.04;86.16
43553;BME280;29153;42.696;23.218;2023-01-31T01:36:17;93984.73;;;-1.04;83.95
43553;BME280;29153;42.696;23.218;2023-01-31T01:38:46;93990.73;;;-0.95;81.20
43553;BME280;29153;42.696;23.218;2023-01-31T01:41:14;94004.95;;;-0.79;80.21
43553;BME280;29153;42.696;23.218;2023-01-31T01:43:50;94012.33;;;-0.67;77.80
43553;BME280;29153;42.696;23.218;2023-01-31T01:46:27;94003.88;;;-0.53;76.73
43553;BME280;29153;42.696;23.218;2023-01-31T01:49:12;94007.92;;;-0.48;76.25
43553;BME280;29153;42.696;23.218;2023-01-31T01:51:42;94011.59;;;-0.47;75.73
43553;BME280;29153;42.696;23.218;2023-01-31T01:54:15;94020.28;;;-0.43;75.56
43553;BME280;29153;42.696;23.218;2023-01-31T01:56:45;94015.13;;;-0.32;76.11
43553;BME280;29153;42.696;23.218;2023-01-31T01:59:21;94011.36;;;-0.27;75.11
43553;BME280;29153;42.696;23.218;2023-01-31T02:01:50;94008.92;;;-0.31;75.69
43553;BME280;29153;42.696;23.218;2023-01-31T02:04:20;94007.81;;;-0.23;75.01
43553;BME280;29153;42.696;23.218;2023-01-31T02:06:48;94016.06;;;-0.26;74.13
43553;BME280;29153;42.696;23.218;2023-01-31T02:12:03;94026.17;;;-0.18;74.17
43553;BME280;29153;42.696;23.218;2023-01-31T02:14:31;94042.29;;;-0.19;73.07
43553;BME280;29153;42.696;23.218;2023-01-31T02:16:58;94033.90;;;-0.30;73.90
43553;BME280;29153;42.696;23.218;2023-01-31T02:33:19;94026.28;;;-0.43;73.77
43553;BME280;29153;42.696;23.218;2023-01-31T02:38:32;94035.64;;;-0.42;74.15
43553;BME280;29153;42.696;23.218;2023-01-31T02:43:52;94031.89;;;-0.28;74.12
43553;BME280;29153;42.696;23.218;2023-01-31T02:46:54;94032.75;;;-0.34;74.85
43553;BME280;29153;42.696;23.218;2023-01-31T02:49:36;94024.38;;;-0.36;75.29
43553;BME280;29153;42.696;23.218;2023-01-31T02:52:31;94031.74;;;-0.42;75.21
43553;BME280;29153;42.696;23.218;2023-01-31T02:55:11;94050.84;;;-0.39;75.54
43553;BME280;29153;42.696;23.218;2023-01-31T02:57:57;94054.01;;;-0.37;75.40
43553;BME280;29153;42.696;23.218;2023-01-31T03:00:26;94036.80;;;-0.47;74.46
43553;BME280;29153;42.696;23.218;2023-01-31T03:02:54;94067.08;;;-0.25;73.91
43553;BME280;29153;42.696;23.218;2023-01-31T03:05:22;94069.83;;;-0.29;74.23
43553;BME280;29153;42.696;23.218;2023-01-31T03:07:59;94069.77;;;-0.32;74.19
43553;BME280;29153;42.696;23.218;2023-01-31T03:10:45;94080.03;;;-0.28;74.23
43553;BME280;29153;42.696;23.218;2023-01-31T03:16:19;94091.02;;;-0.35;74.30
43553;BME280;29153;42.696;23.218;2023-01-31T03:19:19;94091.44;;;-0.38;75.05
43553;BME280;29153;42.696;23.218;2023-01-31T03:22:23;94094.56;;;-0.48;75.80
43553;BME280;29153;42.696;23.218;2023-01-31T03:24:14;94093.02;;;-0.46;76.24
43553;BME280;29153;42.696;23.218;2023-01-31T03:26:43;94091.37;;;-0.50;77.02
43553;BME280;29153;42.696;23.218;2023-01-31T03:29:13;94097.37;;;-0.49;77.11
43553;BME280;29153;42.696;23.218;2023-01-31T03:31:47;94099.13;;;-0.43;77.77
43553;BME280;29153;42.696;23.218;2023-01-31T03:34:15;94097.16;;;-0.48;78.07
43553;BME280;29153;42.696;23.218;2023-01-31T03:37:04;94093.77;;;-0.48;78.62
43553;BME280;29153;42.696;23.218;2023-01-31T03:40:04;94103.58;;;-0.50;79.00
43553;BME280;29153;42.696;23.218;2023-01-31T03:42:41;94106.47;;;-0.49;79.66
43553;BME280;29153;42.696;23.218;2023-01-31T03:45:15;94103.30;;;-0.60;80.59
43553;BME280;29153;42.696;23.218;2023-01-31T03:47:44;94119.26;;;-0.57;81.23
43553;BME280;29153;42.696;23.218;2023-01-31T03:50:16;94114.56;;;-0.57;82.14
43553;BME280;29153;42.696;23.218;2023-01-31T03:52:48;94123.88;;;-0.50;82.00
43553;BME280;29153;42.696;23.218;2023-01-31T03:55:20;94120.92;;;-0.53;82.39
43553;BME280;29153;42.696;23.218;2023-01-31T03:57:50;94121.58;;;-0.49;82.36
43553;BME280;29153;42.696;23.218;2023-01-31T04:00:20;94124.98;;;-0.48;82.67
43553;BME280;29153;42.696;23.218;2023-01-31T04:02:53;94129.95;;;-0.47;83.17
43553;BME280;29153;42.696;23.218;2023-01-31T04:05:24;94136.91;;;-0.40;82.85
43553;BME280;29153;42.696;23.218;2023-01-31T04:07:53;94137.03;;;-0.54;83.42
43553;BME280;29153;42.696;23.218;2023-01-31T04:10:21;94131.19;;;-0.49;83.84
43553;BME280;29153;42.696;23.218;2023-01-31T04:12:49;94144.34;;;-0.44;83.52
43553;BME280;29153;42.696;23.218;2023-01-31T04:15:17;94153.31;;;-0.40;84.03
43553;BME280;29153;42.696;23.218;2023-01-31T04:17:44;94161.42;;;-0.39;84.31
43553;BME280;29153;42.696;23.218;2023-01-31T04:20:12;94156.64;;;-0.33;84.22
43553;BME280;29153;42.696;23.218;2023-01-31T04:22:40;94153.25;;;-0.24;84.57
43553;BME280;29153;42.696;23.218;2023-01-31T04:25:08;94159.45;;;-0.25;84.88
43553;BME280;29153;42.696;23.218;2023-01-31T04:27:35;94157.59;;;-0.27;85.00
43553;BME280;29153;42.696;23.218;2023-01-31T04:30:05;94160.76;;;-0.25;84.74
43553;BME280;29153;42.696;23.218;2023-01-31T04:32:32;94159.39;;;-0.28;84.72
43553;BME280;29153;42.696;23.218;2023-01-31T04:35:00;94164.09;;;-0.27;85.09
43553;BME280;29153;42.696;23.218;2023-01-31T04:37:28;94166.56;;;-0.23;85.27
43553;BME280;29153;42.696;23.218;2023-01-31T04:39:55;94163.88;;;-0.35;85.64
43553;BME280;29153;42.696;23.218;2023-01-31T04:42:23;94167.92;;;-0.39;85.91
43553;BME280;29153;42.696;23.218;2023-01-31T04:44:50;94162.48;;;-0.37;86.28
43553;BME280;29153;42.696;23.218;2023-01-31T04:47:18;94169.63;;;-0.42;86.54
43553;BME280;29153;42.696;23.218;2023-01-31T04:49:45;94170.36;;;-0.44;86.40
43553;BME280;29153;42.696;23.218;2023-01-31T04:52:13;94172.08;;;-0.47;86.80
43553;BME280;29153;42.696;23.218;2023-01-31T04:54:40;94161.61;;;-0.50;86.93
43553;BME280;29153;42.696;23.218;2023-01-31T04:57:08;94171.64;;;-0.53;87.20
43553;BME280;29153;42.696;23.218;2023-01-31T04:59:35;94169.18;;;-0.57;87.32
43553;BME280;29153;42.696;23.218;2023-01-31T05:02:03;94169.82;;;-0.62;87.81
43553;BME280;29153;42.696;23.218;2023-01-31T05:04:30;94165.69;;;-0.69;88.21
43553;BME280;29153;42.696;23.218;2023-01-31T05:06:58;94172.58;;;-0.57;87.60
43553;BME280;29153;42.696;23.218;2023-01-31T05:09:26;94170.32;;;-0.62;88.11
43553;BME280;29153;42.696;23.218;2023-01-31T05:11:53;94167.45;;;-0.54;88.06
43553;BME280;29153;42.696;23.218;2023-01-31T05:14:21;94168.45;;;-0.55;88.05
43553;BME280;29153;42.696;23.218;2023-01-31T05:16:48;94154.52;;;-0.61;88.39
43553;BME280;29153;42.696;23.218;2023-01-31T05:19:16;94154.64;;;-0.56;87.69
43553;BME280;29153;42.696;23.218;2023-01-31T05:21:43;94169.34;;;-0.52;87.99
43553;BME280;29153;42.696;23.218;2023-01-31T05:24:31;94170.00;;;-0.48;88.05
43553;BME280;29153;42.696;23.218;2023-01-31T05:27:00;94177.87;;;-0.45;87.63
43553;BME280;29153;42.696;23.218;2023-01-31T05:29:27;94183.02;;;-0.48;87.43
43553;BME280;29153;42.696;23.218;2023-01-31T05:31:57;94187.28;;;-0.44;87.11
43553;BME280;29153;42.696;23.218;2023-01-31T05:34:24;94181.05;;;-0.52;87.36
43553;BME280;29153;42.696;23.218;2023-01-31T05:36:54;94172.23;;;-0.42;87.46
43553;BME280;29153;42.696;23.218;2023-01-31T05:39:22;94181.98;;;-0.47;87.29
43553;BME280;29153;42.696;23.218;2023-01-31T05:41:49;94188.34;;;-0.42;87.31
43553;BME280;29153;42.696;23.218;2023-01-31T05:44:18;94193.62;;;-0.49;87.58
43553;BME280;29153;42.696;23.218;2023-01-31T05:46:46;94188.35;;;-0.52;88.06
43553;BME280;29153;42.696;23.218;2023-01-31T05:49:14;94185.98;;;-0.44;87.95
43553;BME280;29153;42.696;23.218;2023-01-31T05:51:42;94192.20;;;-0.36;87.43
43553;BME280;29153;42.696;23.218;2023-01-31T05:54:11;94194.07;;;-0.34;87.36
43553;BME280;29153;42.696;23.218;2023-01-31T05:56:38;94187.22;;;-0.28;87.11
43553;BME280;29153;42.696;23.218;2023-01-31T05:59:05;94190.19;;;-0.25;87.62
43553;BME280;29153;42.696;23.218;2023-01-31T06:01:33;94190.98;;;-0.24;87.72
43553;BME280;29153;42.696;23.218;2023-01-31T06:04:00;94195.53;;;-0.29;87.52
43553;BME280;29153;42.696;23.218;2023-01-31T06:06:28;94198.73;;;-0.27;87.89
43553;BME280;29153;42.696;23.218;2023-01-31T06:08:55;94193.59;;;-0.24;88.23
43553;BME280;29153;42.696;23.218;2023-01-31T06:11:23;94193.43;;;-0.29;88.47
43553;BME280;29153;42.696;23.218;2023-01-31T06:13:50;94189.62;;;-0.27;88.44
43553;BME280;29153;42.696;23.218;2023-01-31T06:16:19;94189.76;;;-0.13;88.36
43553;BME280;29153;42.696;23.218;2023-01-31T06:18:46;94194.91;;;-0.15;88.58
43553;BME280;29153;42.696;23.218;2023-01-31T06:21:14;94191.02;;;-0.06;88.22
43553;BME280;29153;42.696;23.218;2023-01-31T06:23:41;94188.61;;;-0.08;88.11
43553;BME280;29153;42.696;23.218;2023-01-31T06:26:11;94188.61;;;-0.08;88.08
43553;BME280;29153;42.696;23.218;2023-01-31T06:28:38;94195.06;;;-0.01;88.50
43553;BME280;29153;42.696;23.218;2023-01-31T06:31:08;94197.02;;;-0.06;87.96
43553;BME280;29153;42.696;23.218;2023-01-31T06:33:36;94199.19;;;0.16;87.78
43553;BME280;29153;42.696;23.218;2023-01-31T06:36:03;94204.09;;;0.06;87.65
43553;BME280;29153;42.696;23.218;2023-01-31T06:38:31;94207.56;;;0.09;87.61
43553;BME280;29153;42.696;23.218;2023-01-31T06:40:59;94207.21;;;0.14;87.66
43553;BME280;29153;42.696;23.218;2023-01-31T06:43:26;94205.05;;;0.20;87.06
43553;BME280;29153;42.696;23.218;2023-01-31T06:45:54;94207.86;;;0.10;87.37
43553;BME280;29153;42.696;23.218;2023-01-31T06:48:21;94201.80;;;0.07;87.64
43553;BME280;29153;42.696;23.218;2023-01-31T06:50:49;94203.89;;;0.07;87.64
43553;BME280;29153;42.696;23.218;2023-01-31T06:53:16;94207.80;;;0.16;87.70
43553;BME280;29153;42.696;23.218;2023-01-31T06:55:44;94205.41;;;0.15;87.61
43553;BME280;29153;42.696;23.218;2023-01-31T06:58:11;94203.66;;;0.18;87.38
43553;BME280;29153;42.696;23.218;2023-01-31T07:00:39;94198.16;;;0.26;87.04
43553;BME280;29153;42.696;23.218;2023-01-31T07:03:07;94204.31;;;0.31;86.97
43553;BME280;29153;42.696;23.218;2023-01-31T07:05:34;94210.12;;;0.33;86.79
43553;BME280;29153;42.696;23.218;2023-01-31T07:08:02;94211.62;;;0.41;86.73
43553;BME280;29153;42.696;23.218;2023-01-31T07:10:29;94208.87;;;0.36;86.53
43553;BME280;29153;42.696;23.218;2023-01-31T07:12:57;94211.83;;;0.39;86.82
43553;BME280;29153;42.696;23.218;2023-01-31T07:15:25;94214.38;;;0.46;86.46
43553;BME280;29153;42.696;23.218;2023-01-31T07:17:57;94221.89;;;0.54;86.13
43553;BME280;29153;42.696;23.218;2023-01-31T07:20:25;94218.63;;;0.59;85.96
43553;BME280;29153;42.696;23.218;2023-01-31T07:22:56;94224.14;;;0.60;85.80
43553;BME280;29153;42.696;23.218;2023-01-31T07:25:25;94185.87;;;0.15;86.67
43553;BME280;29153;42.696;23.218;2023-01-31T07:27:52;94233.03;;;0.43;87.12
43553;BME280;29153;42.696;23.218;2023-01-31T07:30:20;94225.66;;;0.40;86.93
43553;BME280;29153;42.696;23.218;2023-01-31T07:32:48;94215.68;;;0.46;87.34
43553;BME280;29153;42.696;23.218;2023-01-31T07:35:15;94215.23;;;0.58;87.22
43553;BME280;29153;42.696;23.218;2023-01-31T07:37:43;94226.75;;;0.60;87.16
43553;BME280;29153;42.696;23.218;2023-01-31T07:40:13;94223.69;;;0.63;87.13
43553;BME280;29153;42.696;23.218;2023-01-31T07:42:41;94229.55;;;0.76;86.81
43553;BME280;29153;42.696;23.218;2023-01-31T07:45:12;94232.26;;;0.81;86.68
43553;BME280;29153;42.696;23.218;2023-01-31T07:47:40;94235.45;;;0.83;86.43
43553;BME280;29153;42.696;23.218;2023-01-31T07:50:09;94240.67;;;0.83;86.35
43553;BME280;29153;42.696;23.218;2023-01-31T07:52:37;94232.53;;;0.91;86.42
43553;BME280;29153;42.696;23.218;2023-01-31T07:55:04;94231.25;;;0.82;87.02
43553;BME280;29153;42.696;23.218;2023-01-31T07:57:32;94223.14;;;0.81;87.33
43553;BME280;29153;42.696;23.218;2023-01-31T07:59:59;94218.06;;;0.86;87.59
43553;BME280;29153;42.696;23.218;2023-01-31T08:02:27;94228.17;;;0.95;87.51
43553;BME280;29153;42.696;23.218;2023-01-31T08:05:13;94232.66;;;1.06;87.55
43553;BME280;29153;42.696;23.218;2023-01-31T08:07:40;94241.73;;;1.24;86.26
43553;BME280;29153;42.696;23.218;2023-01-31T08:10:08;94234.20;;;1.16;86.68
43553;BME280;29153;42.696;23.218;2023-01-31T08:12:36;94245.22;;;1.18;86.29
43553;BME280;29153;42.696;23.218;2023-01-31T08:15:04;94238.78;;;1.41;85.55
43553;BME280;29153;42.696;23.218;2023-01-31T08:17:32;94236.30;;;1.58;85.35
43553;BME280;29153;42.696;23.218;2023-01-31T08:19:59;94234.50;;;1.81;85.10
43553;BME280;29153;42.696;23.218;2023-01-31T08:22:29;94245.58;;;1.98;83.74
43553;BME280;29153;42.696;23.218;2023-01-31T08:24:56;94250.06;;;2.11;81.90
43553;BME280;29153;42.696;23.218;2023-01-31T08:27:24;94243.08;;;2.03;81.55
43553;BME280;29153;42.696;23.218;2023-01-31T08:29:51;94247.64;;;1.96;82.25
43553;BME280;29153;42.696;23.218;2023-01-31T08:32:19;94250.75;;;2.07;82.07
43553;BME280;29153;42.696;23.218;2023-01-31T08:34:46;94249.83;;;1.90;82.39
43553;BME280;29153;42.696;23.218;2023-01-31T08:37:14;94238.87;;;2.02;82.32
43553;BME280;29153;42.696;23.218;2023-01-31T08:39:41;94243.59;;;1.91;82.30
43553;BME280;29153;42.696;23.218;2023-01-31T08:42:09;94242.97;;;1.86;82.27
43553;BME280;29153;42.696;23.218;2023-01-31T08:44:36;94236.77;;;1.90;83.00
43553;BME280;29153;42.696;23.218;2023-01-31T08:47:04;94234.34;;;2.09;81.74
43553;BME280;29153;42.696;23.218;2023-01-31T08:49:32;94223.14;;;2.11;82.42
43553;BME280;29153;42.696;23.218;2023-01-31T08:52:01;94223.81;;;2.29;81.39
43553;BME280;29153;42.696;23.218;2023-01-31T08:54:28;94232.13;;;2.26;81.21
43553;BME280;29153;42.696;23.218;2023-01-31T08:56:56;94223.03;;;2.06;80.82
43553;BME280;29153;42.696;23.218;2023-01-31T08:59:23;94229.33;;;2.19;80.85
43553;BME280;29153;42.696;23.218;2023-01-31T09:01:51;94239.05;;;2.58;80.61
43553;BME280;29153;42.696;23.218;2023-01-31T09:04:18;94248.45;;;2.71;79.12
43553;BME280;29153;42.696;23.218;2023-01-31T09:06:46;94243.58;;;2.63;78.81
43553;BME280;29153;42.696;23.218;2023-01-31T09:09:15;94249.06;;;2.75;78.49
43553;BME280;29153;42.696;23.218;2023-01-31T09:11:42;94243.48;;;2.98;79.16
43553;BME280;29153;42.696;23.218;2023-01-31T09:14:10;94239.83;;;3.13;77.85
43553;BME280;29153;42.696;23.218;2023-01-31T09:16:38;94239.59;;;3.59;76.72
43553;BME280;29153;42.696;23.218;2023-01-31T09:19:05;94247.88;;;3.85;75.21
43553;BME280;29153;42.696;23.218;2023-01-31T09:21:33;94242.98;;;3.57;74.80
43553;BME280;29153;42.696;23.218;2023-01-31T09:24:01;94246.47;;;3.18;75.38
43553;BME280;29153;42.696;23.218;2023-01-31T09:26:30;94243.05;;;3.17;75.76
43553;BME280;29153;42.696;23.218;2023-01-31T09:28:58;94236.21;;;2.74;77.20
43553;BME280;29153;42.696;23.218;2023-01-31T09:31:26;94226.72;;;2.82;77.69
43553;BME280;29153;42.696;23.218;2023-01-31T09:33:54;94236.64;;;2.68;77.97
43553;BME280;29153;42.696;23.218;2023-01-31T09:36:22;94234.91;;;2.48;78.33
43553;BME280;29153;42.696;23.218;2023-01-31T09:38:55;94233.67;;;2.51;78.77
43553;BME280;29153;42.696;23.218;2023-01-31T09:44:25;94215.22;;;2.32;79.89
43553;BME280;29153;42.696;23.218;2023-01-31T09:46:53;94209.63;;;2.25;80.26
43553;BME280;29153;42.696;23.218;2023-01-31T09:49:26;94202.77;;;2.48;80.18
43553;BME280;29153;42.696;23.218;2023-01-31T09:52:02;94193.94;;;2.65;81.28
43553;BME280;29153;42.696;23.218;2023-01-31T09:54:38;94204.83;;;2.74;79.58
43553;BME280;29153;42.696;23.218;2023-01-31T09:59:47;94210.67;;;2.79;78.83
43553;BME280;29153;42.696;23.218;2023-01-31T10:05:21;94213.83;;;2.78;77.87
43553;BME280;29153;42.696;23.218;2023-01-31T10:08:00;94203.48;;;3.00;77.40
43553;BME280;29153;42.696;23.218;2023-01-31T10:10:50;94205.97;;;2.92;78.07
43553;BME280;29153;42.696;23.218;2023-01-31T10:15:54;94199.95;;;2.78;77.20
43553;BME280;29153;42.696;23.218;2023-01-31T10:18:30;94195.84;;;2.82;77.39
43553;BME280;29153;42.696;23.218;2023-01-31T10:21:05;94189.80;;;3.09;76.13
43553;BME280;29153;42.696;23.218;2023-01-31T10:23:54;94180.05;;;3.21;76.41
43553;BME280;29153;42.696;23.218;2023-01-31T10:26:30;94194.03;;;3.13;74.30
43553;BME280;29153;42.696;23.218;2023-01-31T10:31:55;94183.63;;;3.01;76.36
43553;BME280;29153;42.696;23.218;2023-01-31T10:34:27;94174.79;;;3.19;76.60
43553;BME280;29153;42.696;23.218;2023-01-31T10:36:58;94181.65;;;3.23;75.66
43553;BME280;29153;42.696;23.218;2023-01-31T10:39:54;94169.27;;;3.18;75.94
43553;BME280;29153;42.696;23.218;2023-01-31T10:42:38;94171.27;;;3.28;76.92
43553;BME280;29153;42.696;23.218;2023-01-31T10:45:16;94173.67;;;3.46;75.91
43553;BME280;29153;42.696;23.218;2023-01-31T10:50:22;94170.95;;;3.74;72.97
43553;BME280;29153;42.696;23.218;2023-01-31T10:55:31;94167.18;;;3.51;74.09
43553;BME280;29153;42.696;23.218;2023-01-31T10:57:58;94170.28;;;3.64;74.03
43553;BME280;29153;42.696;23.218;2023-01-31T11:00:29;94175.25;;;3.80;75.26
43553;BME280;29153;42.696;23.218;2023-01-31T11:02:57;94185.21;;;3.81;74.20
43553;BME280;29153;42.696;23.218;2023-01-31T11:05:27;94177.19;;;3.71;74.02
43553;BME280;29153;42.696;23.218;2023-01-31T11:08:02;94177.65;;;3.51;73.58
43553;BME280;29153;42.696;23.218;2023-01-31T11:10:28;94177.02;;;3.44;74.77
43553;BME280;29153;42.696;23.218;2023-01-31T11:13:03;94186.25;;;3.15;75.84
43553;BME280;29153;42.696;23.218;2023-01-31T11:15:36;94189.21;;;3.21;76.57
43553;BME280;29153;42.696;23.218;2023-01-31T11:18:05;94179.53;;;3.36;76.78
43553;BME280;29153;42.696;23.218;2023-01-31T11:20:43;94188.05;;;3.29;75.96
43553;BME280;29153;42.696;23.218;2023-01-31T11:23:06;94189.89;;;3.14;76.98
43553;BME280;29153;42.696;23.218;2023-01-31T11:25:35;94188.35;;;2.88;78.09
43553;BME280;29153;42.696;23.218;2023-01-31T11:28:15;94192.66;;;2.80;78.25
43553;BME280;29153;42.696;23.218;2023-01-31T11:30:35;94194.19;;;2.64;79.00
43553;BME280;29153;42.696;23.218;2023-01-31T11:33:04;94192.73;;;2.70;78.42
43553;BME280;29153;42.696;23.218;2023-01-31T11:35:33;94188.35;;;2.59;79.06
43553;BME280;29153;42.696;23.218;2023-01-31T11:38:19;94191.70;;;2.57;79.83
43553;BME280;29153;42.696;23.218;2023-01-31T11:40:47;94190.65;;;2.44;80.34
43553;BME280;29153;42.696;23.218;2023-01-31T11:43:26;94181.42;;;2.27;81.80
43553;BME280;29153;42.696;23.218;2023-01-31T11:45:59;94182.59;;;2.20;82.39
43553;BME280;29153;42.696;23.218;2023-01-31T11:48:41;94187.70;;;2.15;83.12
43553;BME280;29153;42.696;23.218;2023-01-31T11:51:12;94186.17;;;2.16;82.71
43553;BME280;29153;42.696;23.218;2023-01-31T11:53:46;94189.53;;;2.03;82.36
43553;BME280;29153;42.696;23.218;2023-01-31T11:56:15;94179.89;;;1.80;83.05
43553;BME280;29153;42.696;23.218;2023-01-31T11:58:45;94170.00;;;1.94;83.11
43553;BME280;29153;42.696;23.218;2023-01-31T12:01:18;94179.24;;;2.10;83.51
43553;BME280;29153;42.696;23.218;2023-01-31T12:03:54;94167.97;;;1.96;82.66
43553;BME280;29153;42.696;23.218;2023-01-31T12:06:31;94167.57;;;1.90;84.15
43553;BME280;29153;42.696;23.218;2023-01-31T12:09:01;94166.61;;;1.81;83.80
43553;BME280;29153;42.696;23.218;2023-01-31T12:11:32;94173.31;;;1.77;84.18
43553;BME280;29153;42.696;23.218;2023-01-31T12:14:14;94170.70;;;1.77;85.08
43553;BME280;29153;42.696;23.218;2023-01-31T12:16:42;94165.14;;;1.86;84.19
43553;BME280;29153;42.696;23.218;2023-01-31T12:19:18;94173.99;;;1.73;82.83
43553;BME280;29153;42.696;23.218;2023-01-31T12:22:03;94167.30;;;1.65;83.92
43553;BME280;29153;42.696;23.218;2023-01-31T12:24:50;94177.58;;;1.69;83.78
43553;BME280;29153;42.696;23.218;2023-01-31T12:37:55;94172.50;;;1.89;81.42
43553;BME280;29153;42.696;23.218;2023-01-31T12:42:56;94170.47;;;1.91;82.16
43553;BME280;29153;42.696;23.218;2023-01-31T12:51:31;94169.77;;;2.07;81.82
43553;BME280;29153;42.696;23.218;2023-01-31T12:54:08;94176.14;;;1.99;82.47
43553;BME280;29153;42.696;23.218;2023-01-31T13:04:57;94107.79;;;1.53;82.73
43553;BME280;29153;42.696;23.218;2023-01-31T13:07:33;94164.28;;;1.94;82.26
43553;BME280;29153;42.696;23.218;2023-01-31T13:10:02;94158.05;;;1.83;82.47
43553;BME280;29153;42.696;23.218;2023-01-31T13:12:32;94167.97;;;1.72;82.36
43553;BME280;29153;42.696;23.218;2023-01-31T13:15:04;94173.20;;;1.72;82.54
43553;BME280;29153;42.696;23.218;2023-01-31T13:17:33;94174.17;;;1.92;82.21
43553;BME280;29153;42.696;23.218;2023-01-31T13:20:20;94166.24;;;2.01;82.75
43553;BME280;29153;42.696;23.218;2023-01-31T13:22:52;94168.57;;;2.12;82.63
43553;BME280;29153;42.696;23.218;2023-01-31T13:27:57;94184.47;;;2.10;81.77
43553;BME280;29153;42.696;23.218;2023-01-31T13:32:58;94183.27;;;2.15;80.25
43553;BME280;29153;42.696;23.218;2023-01-31T13:35:31;94189.00;;;2.15;80.14
43553;BME280;29153;42.696;23.218;2023-01-31T13:38:01;94185.22;;;2.08;81.65
43553;BME280;29153;42.696;23.218;2023-01-31T13:40:31;94190.95;;;2.08;81.00
43553;BME280;29153;42.696;23.218;2023-01-31T13:43:07;94197.16;;;2.04;81.42
43553;BME280;29153;42.696;23.218;2023-01-31T13:45:32;94196.99;;;1.97;81.75
43553;BME280;29153;42.696;23.218;2023-01-31T13:48:03;94203.69;;;2.04;81.21
43553;BME280;29153;42.696;23.218;2023-01-31T13:53:06;94193.52;;;1.94;81.04
43553;BME280;29153;42.696;23.218;2023-01-31T13:55:37;94191.25;;;2.09;80.67
43553;BME280;29153;42.696;23.218;2023-01-31T13:58:11;94189.92;;;1.97;80.61
43553;BME280;29153;42.696;23.218;2023-01-31T14:00:44;94191.13;;;2.04;81.48
43553;BME280;29153;42.696;23.218;2023-01-31T14:03:19;94193.61;;;2.10;80.71
43553;BME280;29153;42.696;23.218;2023-01-31T14:05:54;94199.26;;;2.05;79.81
43553;BME280;29153;42.696;23.218;2023-01-31T14:11:19;94198.97;;;2.04;79.40
43553;BME280;29153;42.696;23.218;2023-01-31T14:16:02;94206.57;;;1.94;79.58
43553;BME280;29153;42.696;23.218;2023-01-31T14:24:00;94209.13;;;2.03;79.84
43553;BME280;29153;42.696;23.218;2023-01-31T14:29:19;94210.83;;;1.86;79.33
43553;BME280;29153;42.696;23.218;2023-01-31T14:31:49;94213.68;;;1.96;79.65
43553;BME280;29153;42.696;23.218;2023-01-31T14:34:29;94212.36;;;1.84;79.66
43553;BME280;29153;42.696;23.218;2023-01-31T14:39:48;94216.39;;;1.77;80.44
43553;BME280;29153;42.696;23.218;2023-01-31T14:59:24;94246.15;;;1.44;82.93
43553;BME280;29153;42.696;23.218;2023-01-31T15:01:52;94242.88;;;1.28;83.68
43553;BME280;29153;42.696;23.218;2023-01-31T15:04:22;94234.95;;;1.14;85.24
43553;BME280;29153;42.696;23.218;2023-01-31T15:06:52;94242.48;;;1.13;84.94